sensor_id;sensor_type;location;lat;lon;timestamp;P1;durP1;ratioP1;P2;durP2;ratioP2
62711;SDS011;48772;55.586;37.730;2023-02-28T00:00:25;9.80;;;6.07;;
62711;SDS011;48772;55.586;37.730;2023-02-28T00:02:52;7.23;;;4.00;;
62711;SDS011;48772;55.586;37.730;2023-02-28T00:05:18;8.17;;;4.83;;
62711;SDS011;48772;55.586;37.730;2023-02-28T00:07:46;8.33;;;5.50;;
62711;SDS011;48772;55.586;37.730;2023-02-28T00:10:13;6.70;;;3.73;;
62711;SDS011;48772;55.586;37.730;2023-02-28T00:12:46;5.78;;;4.10;;
62711;SDS011;48772;55.586;37.730;2023-02-28T00:15:13;8.33;;;5.47;;
62711;SDS011;48772;55.586;37.730;2023-02-28T00:17:39;9.13;;;5.33;;
62711;SDS011;48772;55.586;37.730;2023-02-28T00:20:06;6.63;;;4.40;;
62711;SDS011;48772;55.586;37.730;2023-02-28T00:22:38;5.00;;;3.30;;
62711;SDS011;48772;55.586;37.730;2023-02-28T00:25:06;4.97;;;3.07;;
62711;SDS011;48772;55.586;37.730;2023-02-28T00:27:34;7.10;;;3.77;;
62711;SDS011;48772;55.586;37.730;2023-02-28T00:30:04;9.47;;;3.70;;
62711;SDS011;48772;55.586;37.730;2023-02-28T00:32:32;4.83;;;2.73;;
62711;SDS011;48772;55.586;37.730;2023-02-28T00:35:00;4.60;;;2.77;;
62711;SDS011;48772;55.586;37.730;2023-02-28T00:37:28;6.50;;;3.73;;
62711;SDS011;48772;55.586;37.730;2023-02-28T00:39:55;9.23;;;4.17;;
62711;SDS011;48772;55.586;37.730;2023-02-28T00:42:21;5.03;;;3.10;;
62711;SDS011;48772;55.586;37.730;2023-02-28T00:44:48;5.90;;;3.67;;
62711;SDS011;48772;55.586;37.730;2023-02-28T00:47:14;7.57;;;4.43;;
62711;SDS011;48772;55.586;37.730;2023-02-28T00:49:40;8.30;;;4.50;;
62711;SDS011;48772;55.586;37.730;2023-02-28T00:52:08;6.60;;;3.60;;
62711;SDS011;48772;55.586;37.730;2023-02-28T00:54:34;6.43;;;3.93;;
62711;SDS011;48772;55.586;37.730;2023-02-28T00:57:00;6.00;;;3.60;;
62711;SDS011;48772;55.586;37.730;2023-02-28T00:59:26;7.83;;;5.27;;
62711;SDS011;48772;55.586;37.730;2023-02-28T01:01:52;5.73;;;4.03;;
62711;SDS011;48772;55.586;37.730;2023-02-28T01:04:18;5.80;;;3.37;;
62711;SDS011;48772;55.586;37.730;2023-02-28T01:06:44;6.93;;;4.27;;
62711;SDS011;48772;55.586;37.730;2023-02-28T01:09:10;6.37;;;3.47;;
62711;SDS011;48772;55.586;37.730;2023-02-28T01:11:37;4.80;;;3.47;;
62711;SDS011;48772;55.586;37.730;2023-02-28T01:14:03;8.03;;;4.73;;
62711;SDS011;48772;55.586;37.730;2023-02-28T01:16:29;6.57;;;3.87;;
62711;SDS011;48772;55.586;37.730;2023-02-28T01:18:55;5.60;;;3.50;;
62711;SDS011;48772;55.586;37.730;2023-02-28T01:21:21;4.80;;;2.80;;
62711;SDS011;48772;55.586;37.730;2023-02-28T01:23:48;7.93;;;3.57;;
62711;SDS011;48772;55.586;37.730;2023-02-28T01:26:19;6.10;;;3.97;;
62711;SDS011;48772;55.586;37.730;2023-02-28T01:28:48;4.37;;;2.97;;
62711;SDS011;48772;55.586;37.730;2023-02-28T01:31:15;4.20;;;2.63;;
62711;SDS011;48772;55.586;37.730;2023-02-28T01:33:41;6.43;;;4.10;;
62711;SDS011;48772;55.586;37.730;2023-02-28T01:36:09;7.70;;;3.97;;
62711;SDS011;48772;55.586;37.730;2023-02-28T01:38:38;7.93;;;4.10;;
62711;SDS011;48772;55.586;37.730;2023-02-28T01:41:04;6.77;;;3.53;;
62711;SDS011;48772;55.586;37.730;2023-02-28T01:46:11;5.43;;;3.00;;
62711;SDS011;48772;55.586;37.730;2023-02-28T01:48:40;6.30;;;3.43;;
62711;SDS011;48772;55.586;37.730;2023-02-28T01:51:35;6.43;;;3.80;;
62711;SDS011;48772;55.586;37.730;2023-02-28T01:54:17;5.33;;;2.77;;
62711;SDS011;48772;55.586;37.730;2023-02-28T01:56:48;5.30;;;3.57;;
62711;SDS011;48772;55.586;37.730;2023-02-28T02:00:03;7.73;;;3.90;;
62711;SDS011;48772;55.586;37.730;2023-02-28T02:02:16;6.07;;;3.37;;
62711;SDS011;48772;55.586;37.730;2023-02-28T02:04:50;5.37;;;3.50;;
62711;SDS011;48772;55.586;37.730;2023-02-28T02:07:16;6.33;;;3.77;;
62711;SDS011;48772;55.586;37.730;2023-02-28T02:09:44;4.80;;;3.50;;
62711;SDS011;48772;55.586;37.730;2023-02-28T02:12:24;6.63;;;5.10;;
62711;SDS011;48772;55.586;37.730;2023-02-28T02:17:45;8.43;;;3.90;;
62711;SDS011;48772;55.586;37.730;2023-02-28T02:25:53;7.80;;;4.30;;
62711;SDS011;48772;55.586;37.730;2023-02-28T02:38:02;3.63;;;2.43;;
62711;SDS011;48772;55.586;37.730;2023-02-28T02:44:24;6.83;;;3.83;;
62711;SDS011;48772;55.586;37.730;2023-02-28T02:47:07;5.37;;;3.23;;
62711;SDS011;48772;55.586;37.730;2023-02-28T02:49:37;7.93;;;3.63;;
62711;SDS011;48772;55.586;37.730;2023-02-28T02:52:09;5.17;;;3.03;;
62711;SDS011;48772;55.586;37.730;2023-02-28T02:57:22;4.80;;;3.13;;
62711;SDS011;48772;55.586;37.730;2023-02-28T02:59:52;7.80;;;4.50;;
62711;SDS011;48772;55.586;37.730;2023-02-28T03:02:21;6.77;;;3.83;;
62711;SDS011;48772;55.586;37.730;2023-02-28T03:04:51;9.17;;;3.53;;
62711;SDS011;48772;55.586;37.730;2023-02-28T03:07:20;4.53;;;3.33;;
62711;SDS011;48772;55.586;37.730;2023-02-28T03:09:53;5.00;;;3.53;;
62711;SDS011;48772;55.586;37.730;2023-02-28T03:12:20;4.60;;;2.92;;
62711;SDS011;48772;55.586;37.730;2023-02-28T03:20:05;7.47;;;3.40;;
62711;SDS011;48772;55.586;37.730;2023-02-28T03:22:46;5.30;;;2.72;;
62711;SDS011;48772;55.586;37.730;2023-02-28T03:30:57;5.37;;;3.43;;
62711;SDS011;48772;55.586;37.730;2023-02-28T03:33:33;7.03;;;3.97;;
62711;SDS011;48772;55.586;37.730;2023-02-28T03:36:04;4.60;;;3.13;;
62711;SDS011;48772;55.586;37.730;2023-02-28T03:41:49;5.40;;;3.17;;
62711;SDS011;48772;55.586;37.730;2023-02-28T03:44:28;6.73;;;3.47;;
62711;SDS011;48772;55.586;37.730;2023-02-28T03:47:07;5.00;;;3.37;;
62711;SDS011;48772;55.586;37.730;2023-02-28T03:49:39;5.07;;;3.63;;
62711;SDS011;48772;55.586;37.730;2023-02-28T03:52:09;3.33;;;2.67;;
62711;SDS011;48772;55.586;37.730;2023-02-28T03:54:41;2.60;;;2.13;;
62711;SDS011;48772;55.586;37.730;2023-02-28T03:57:22;4.93;;;3.43;;
62711;SDS011;48772;55.586;37.730;2023-02-28T04:00:03;3.77;;;2.93;;
62711;SDS011;48772;55.586;37.730;2023-02-28T04:02:38;2.37;;;1.60;;
62711;SDS011;48772;55.586;37.730;2023-02-28T04:05:05;6.00;;;3.63;;
62711;SDS011;48772;55.586;37.730;2023-02-28T04:07:32;5.90;;;2.67;;
62711;SDS011;48772;55.586;37.730;2023-02-28T04:09:58;5.33;;;2.73;;
62711;SDS011;48772;55.586;37.730;2023-02-28T04:12:24;6.00;;;3.37;;
62711;SDS011;48772;55.586;37.730;2023-02-28T04:14:50;5.07;;;3.23;;
62711;SDS011;48772;55.586;37.730;2023-02-28T04:17:17;4.23;;;2.83;;
62711;SDS011;48772;55.586;37.730;2023-02-28T04:19:43;3.00;;;2.47;;
62711;SDS011;48772;55.586;37.730;2023-02-28T04:22:10;7.07;;;3.37;;
62711;SDS011;48772;55.586;37.730;2023-02-28T04:24:36;5.97;;;3.50;;
62711;SDS011;48772;55.586;37.730;2023-02-28T04:27:02;5.03;;;2.67;;
62711;SDS011;48772;55.586;37.730;2023-02-28T04:29:29;4.60;;;2.60;;
62711;SDS011;48772;55.586;37.730;2023-02-28T04:32:00;3.27;;;2.30;;
62711;SDS011;48772;55.586;37.730;2023-02-28T04:34:27;2.80;;;1.87;;
62711;SDS011;48772;55.586;37.730;2023-02-28T04:36:55;6.53;;;3.27;;
62711;SDS011;48772;55.586;37.730;2023-02-28T04:39:22;3.90;;;3.17;;
62711;SDS011;48772;55.586;37.730;2023-02-28T04:41:49;4.63;;;2.53;;
62711;SDS011;48772;55.586;37.730;2023-02-28T04:44:16;4.07;;;2.60;;
62711;SDS011;48772;55.586;37.730;2023-02-28T04:46:42;3.10;;;2.63;;
62711;SDS011;48772;55.586;37.730;2023-02-28T04:49:12;5.60;;;2.23;;
62711;SDS011;48772;55.586;37.730;2023-02-28T04:51:38;3.10;;;2.33;;
62711;SDS011;48772;55.586;37.730;2023-02-28T04:54:04;4.07;;;2.43;;
62711;SDS011;48772;55.586;37.730;2023-02-28T04:56:30;3.90;;;2.37;;
62711;SDS011;48772;55.586;37.730;2023-02-28T04:58:55;3.83;;;2.53;;
62711;SDS011;48772;55.586;37.730;2023-02-28T05:01:23;5.32;;;2.88;;
62711;SDS011;48772;55.586;37.730;2023-02-28T05:03:51;7.70;;;2.97;;
62711;SDS011;48772;55.586;37.730;2023-02-28T05:06:18;3.53;;;2.77;;
62711;SDS011;48772;55.586;37.730;2023-02-28T05:08:45;3.28;;;2.53;;
62711;SDS011;48772;55.586;37.730;2023-02-28T05:11:14;3.50;;;2.38;;
62711;SDS011;48772;55.586;37.730;2023-02-28T05:13:48;3.40;;;2.78;;
62711;SDS011;48772;55.586;37.730;2023-02-28T05:16:14;3.90;;;2.55;;
62711;SDS011;48772;55.586;37.730;2023-02-28T05:18:40;4.40;;;2.90;;
62711;SDS011;48772;55.586;37.730;2023-02-28T05:21:13;3.72;;;2.10;;
62711;SDS011;48772;55.586;37.730;2023-02-28T05:23:49;6.10;;;3.00;;
62711;SDS011;48772;55.586;37.730;2023-02-28T05:26:16;4.63;;;2.58;;
62711;SDS011;48772;55.586;37.730;2023-02-28T05:28:41;3.47;;;2.78;;
62711;SDS011;48772;55.586;37.730;2023-02-28T05:31:09;4.80;;;2.95;;
62711;SDS011;48772;55.586;37.730;2023-02-28T05:33:36;3.38;;;2.63;;
62711;SDS011;48772;55.586;37.730;2023-02-28T05:36:02;2.78;;;2.47;;
62711;SDS011;48772;55.586;37.730;2023-02-28T05:38:29;3.53;;;1.98;;
62711;SDS011;48772;55.586;37.730;2023-02-28T05:40:55;3.60;;;2.22;;
62711;SDS011;48772;55.586;37.730;2023-02-28T05:43:21;3.47;;;2.33;;
62711;SDS011;48772;55.586;37.730;2023-02-28T05:45:48;3.65;;;2.90;;
62711;SDS011;48772;55.586;37.730;2023-02-28T05:48:13;2.92;;;2.55;;
62711;SDS011;48772;55.586;37.730;2023-02-28T05:50:39;4.97;;;2.65;;
62711;SDS011;48772;55.586;37.730;2023-02-28T05:53:06;5.75;;;2.75;;
62711;SDS011;48772;55.586;37.730;2023-02-28T05:55:31;4.38;;;2.38;;
62711;SDS011;48772;55.586;37.730;2023-02-28T05:57:57;3.25;;;2.38;;
62711;SDS011;48772;55.586;37.730;2023-02-28T06:00:24;3.88;;;2.50;;
62711;SDS011;48772;55.586;37.730;2023-02-28T06:02:50;2.28;;;2.00;;
62711;SDS011;48772;55.586;37.730;2023-02-28T06:05:18;2.97;;;2.58;;
62711;SDS011;48772;55.586;37.730;2023-02-28T06:07:44;6.60;;;3.03;;
62711;SDS011;48772;55.586;37.730;2023-02-28T06:10:10;2.95;;;2.58;;
62711;SDS011;48772;55.586;37.730;2023-02-28T06:12:38;3.05;;;2.60;;
62711;SDS011;48772;55.586;37.730;2023-02-28T06:18:44;5.32;;;2.42;;
62711;SDS011;48772;55.586;37.730;2023-02-28T06:21:10;2.78;;;2.15;;
62711;SDS011;48772;55.586;37.730;2023-02-28T06:23:38;3.15;;;2.50;;
62711;SDS011;48772;55.586;37.730;2023-02-28T06:26:03;3.10;;;2.80;;
62711;SDS011;48772;55.586;37.730;2023-02-28T06:28:30;3.53;;;2.67;;
62711;SDS011;48772;55.586;37.730;2023-02-28T06:30:56;3.03;;;2.25;;
62711;SDS011;48772;55.586;37.730;2023-02-28T06:33:22;2.50;;;2.30;;
62711;SDS011;48772;55.586;37.730;2023-02-28T06:35:51;3.60;;;2.33;;
62711;SDS011;48772;55.586;37.730;2023-02-28T06:38:18;3.30;;;2.60;;
62711;SDS011;48772;55.586;37.730;2023-02-28T06:40:44;3.85;;;2.22;;
62711;SDS011;48772;55.586;37.730;2023-02-28T06:43:10;2.83;;;2.42;;
62711;SDS011;48772;55.586;37.730;2023-02-28T06:45:42;3.55;;;2.40;;
62711;SDS011;48772;55.586;37.730;2023-02-28T06:48:12;2.78;;;2.17;;
62711;SDS011;48772;55.586;37.730;2023-02-28T06:50:37;3.95;;;2.50;;
62711;SDS011;48772;55.586;37.730;2023-02-28T06:53:03;3.83;;;2.33;;
62711;SDS011;48772;55.586;37.730;2023-02-28T06:55:30;3.45;;;2.30;;
62711;SDS011;48772;55.586;37.730;2023-02-28T06:57:56;4.45;;;2.47;;
62711;SDS011;48772;55.586;37.730;2023-02-28T07:00:22;4.30;;;2.25;;
62711;SDS011;48772;55.586;37.730;2023-02-28T07:02:50;4.03;;;3.03;;
62711;SDS011;48772;55.586;37.730;2023-02-28T07:05:16;5.10;;;2.17;;
62711;SDS011;48772;55.586;37.730;2023-02-28T07:07:42;3.17;;;2.28;;
62711;SDS011;48772;55.586;37.730;2023-02-28T07:10:11;2.38;;;1.75;;
62711;SDS011;48772;55.586;37.730;2023-02-28T07:18:48;2.97;;;1.80;;
62711;SDS011;48772;55.586;37.730;2023-02-28T07:21:14;2.60;;;1.92;;
62711;SDS011;48772;55.586;37.730;2023-02-28T07:23:40;2.83;;;2.53;;
62711;SDS011;48772;55.586;37.730;2023-02-28T07:26:07;4.70;;;2.25;;
62711;SDS011;48772;55.586;37.730;2023-02-28T07:28:40;4.88;;;2.17;;
62711;SDS011;48772;55.586;37.730;2023-02-28T07:31:10;4.93;;;2.60;;
62711;SDS011;48772;55.586;37.730;2023-02-28T07:36:25;3.30;;;2.42;;
62711;SDS011;48772;55.586;37.730;2023-02-28T07:38:51;5.13;;;1.95;;
62711;SDS011;48772;55.586;37.730;2023-02-28T07:41:18;2.15;;;1.95;;
62711;SDS011;48772;55.586;37.730;2023-02-28T07:43:45;4.03;;;2.65;;
62711;SDS011;48772;55.586;37.730;2023-02-28T07:46:12;4.65;;;2.15;;
62711;SDS011;48772;55.586;37.730;2023-02-28T07:48:43;3.50;;;2.28;;
62711;SDS011;48772;55.586;37.730;2023-02-28T07:51:10;4.05;;;2.65;;
62711;SDS011;48772;55.586;37.730;2023-02-28T07:53:36;4.10;;;2.65;;
62711;SDS011;48772;55.586;37.730;2023-02-28T07:56:02;2.58;;;2.17;;
62711;SDS011;48772;55.586;37.730;2023-02-28T07:58:29;5.20;;;2.35;;
62711;SDS011;48772;55.586;37.730;2023-02-28T08:00:56;4.00;;;2.05;;
62711;SDS011;48772;55.586;37.730;2023-02-28T08:03:30;2.92;;;2.28;;
62711;SDS011;48772;55.586;37.730;2023-02-28T08:05:56;6.25;;;2.63;;
62711;SDS011;48772;55.586;37.730;2023-02-28T08:08:22;3.92;;;2.40;;
62711;SDS011;48772;55.586;37.730;2023-02-28T08:10:47;2.67;;;2.33;;
62711;SDS011;48772;55.586;37.730;2023-02-28T08:13:13;2.83;;;2.17;;
62711;SDS011;48772;55.586;37.730;2023-02-28T08:15:40;4.90;;;3.38;;
62711;SDS011;48772;55.586;37.730;2023-02-28T08:18:08;4.13;;;2.90;;
62711;SDS011;48772;55.586;37.730;2023-02-28T08:20:34;3.42;;;2.72;;
62711;SDS011;48772;55.586;37.730;2023-02-28T08:23:00;4.38;;;2.90;;
62711;SDS011;48772;55.586;37.730;2023-02-28T08:25:29;4.47;;;3.05;;
62711;SDS011;48772;55.586;37.730;2023-02-28T08:27:55;4.38;;;3.17;;
62711;SDS011;48772;55.586;37.730;2023-02-28T08:30:21;4.25;;;2.70;;
62711;SDS011;48772;55.586;37.730;2023-02-28T08:32:47;4.70;;;2.85;;
62711;SDS011;48772;55.586;37.730;2023-02-28T08:35:13;4.97;;;3.17;;
62711;SDS011;48772;55.586;37.730;2023-02-28T08:37:39;4.65;;;2.70;;
62711;SDS011;48772;55.586;37.730;2023-02-28T08:40:05;3.30;;;2.33;;
62711;SDS011;48772;55.586;37.730;2023-02-28T08:42:31;3.63;;;2.75;;
62711;SDS011;48772;55.586;37.730;2023-02-28T08:44:57;4.22;;;3.15;;
62711;SDS011;48772;55.586;37.730;2023-02-28T08:47:23;4.97;;;2.80;;
62711;SDS011;48772;55.586;37.730;2023-02-28T08:49:50;4.15;;;2.70;;
62711;SDS011;48772;55.586;37.730;2023-02-28T08:52:17;4.15;;;2.70;;
62711;SDS011;48772;55.586;37.730;2023-02-28T08:54:43;4.03;;;3.05;;
62711;SDS011;48772;55.586;37.730;2023-02-28T08:57:09;8.27;;;3.53;;
62711;SDS011;48772;55.586;37.730;2023-02-28T08:59:35;5.95;;;2.83;;
62711;SDS011;48772;55.586;37.730;2023-02-28T09:02:01;3.70;;;2.95;;
62711;SDS011;48772;55.586;37.730;2023-02-28T09:04:27;4.75;;;3.20;;
62711;SDS011;48772;55.586;37.730;2023-02-28T09:06:55;8.00;;;3.47;;
62711;SDS011;48772;55.586;37.730;2023-02-28T09:09:21;3.70;;;2.88;;
62711;SDS011;48772;55.586;37.730;2023-02-28T09:11:47;5.05;;;3.17;;
62711;SDS011;48772;55.586;37.730;2023-02-28T09:14:13;3.95;;;2.95;;
62711;SDS011;48772;55.586;37.730;2023-02-28T09:16:39;7.80;;;2.90;;
62711;SDS011;48772;55.586;37.730;2023-02-28T09:19:05;6.63;;;3.25;;
62711;SDS011;48772;55.586;37.730;2023-02-28T09:21:31;5.55;;;2.90;;
62711;SDS011;48772;55.586;37.730;2023-02-28T09:23:56;5.20;;;2.85;;
62711;SDS011;48772;55.586;37.730;2023-02-28T09:26:23;9.60;;;3.30;;
62711;SDS011;48772;55.586;37.730;2023-02-28T09:28:51;6.82;;;4.38;;
62711;SDS011;48772;55.586;37.730;2023-02-28T09:31:19;3.72;;;1.95;;
62711;SDS011;48772;55.586;37.730;2023-02-28T09:33:50;5.95;;;2.78;;
62711;SDS011;48772;55.586;37.730;2023-02-28T09:36:18;4.30;;;2.88;;
62711;SDS011;48772;55.586;37.730;2023-02-28T09:38:45;5.47;;;3.38;;
62711;SDS011;48772;55.586;37.730;2023-02-28T09:41:24;3.90;;;3.33;;
62711;SDS011;48772;55.586;37.730;2023-02-28T09:43:56;4.35;;;2.80;;
62711;SDS011;48772;55.586;37.730;2023-02-28T09:49:12;5.38;;;3.22;;
62711;SDS011;48772;55.586;37.730;2023-02-28T09:51:54;5.55;;;3.00;;
62711;SDS011;48772;55.586;37.730;2023-02-28T09:54:26;4.75;;;3.25;;
62711;SDS011;48772;55.586;37.730;2023-02-28T10:07:21;6.05;;;2.80;;
62711;SDS011;48772;55.586;37.730;2023-02-28T10:14:16;5.18;;;2.97;;
62711;SDS011;48772;55.586;37.730;2023-02-28T10:16:46;4.15;;;3.25;;
62711;SDS011;48772;55.586;37.730;2023-02-28T10:19:23;5.00;;;3.58;;
62711;SDS011;48772;55.586;37.730;2023-02-28T10:22:01;4.20;;;2.33;;
62711;SDS011;48772;55.586;37.730;2023-02-28T10:24:41;3.28;;;2.38;;
62711;SDS011;48772;55.586;37.730;2023-02-28T10:27:16;4.65;;;3.00;;
62711;SDS011;48772;55.586;37.730;2023-02-28T10:29:54;3.97;;;2.72;;
62711;SDS011;48772;55.586;37.730;2023-02-28T10:32:26;5.18;;;2.72;;
62711;SDS011;48772;55.586;37.730;2023-02-28T10:37:49;6.40;;;3.05;;
62711;SDS011;48772;55.586;37.730;2023-02-28T10:43:17;5.40;;;3.15;;
62711;SDS011;48772;55.586;37.730;2023-02-28T10:45:53;4.93;;;3.40;;
62711;SDS011;48772;55.586;37.730;2023-02-28T10:48:44;6.43;;;3.30;;
62711;SDS011;48772;55.586;37.730;2023-02-28T10:51:15;7.22;;;2.97;;
62711;SDS011;48772;55.586;37.730;2023-02-28T10:53:51;6.10;;;3.05;;
62711;SDS011;48772;55.586;37.730;2023-02-28T10:56:19;5.20;;;3.70;;
62711;SDS011;48772;55.586;37.730;2023-02-28T10:58:51;5.75;;;3.40;;
62711;SDS011;48772;55.586;37.730;2023-02-28T11:04:38;6.00;;;2.78;;
62711;SDS011;48772;55.586;37.730;2023-02-28T11:07:20;9.43;;;3.47;;
62711;SDS011;48772;55.586;37.730;2023-02-28T11:09:51;4.90;;;3.63;;
62711;SDS011;48772;55.586;37.730;2023-02-28T11:14:55;4.72;;;3.03;;
62711;SDS011;48772;55.586;37.730;2023-02-28T11:17:29;6.70;;;3.50;;
62711;SDS011;48772;55.586;37.730;2023-02-28T11:20:06;4.63;;;3.38;;
62711;SDS011;48772;55.586;37.730;2023-02-28T11:22:43;5.00;;;3.85;;
62711;SDS011;48772;55.586;37.730;2023-02-28T11:25:31;3.75;;;2.67;;
62711;SDS011;48772;55.586;37.730;2023-02-28T11:27:59;5.13;;;2.58;;
62711;SDS011;48772;55.586;37.730;2023-02-28T11:30:35;5.50;;;3.15;;
62711;SDS011;48772;55.586;37.730;2023-02-28T11:33:23;4.43;;;3.05;;
62711;SDS011;48772;55.586;37.730;2023-02-28T11:35:55;4.13;;;2.80;;
62711;SDS011;48772;55.586;37.730;2023-02-28T11:38:35;5.05;;;2.72;;
62711;SDS011;48772;55.586;37.730;2023-02-28T11:51:47;2.33;;;2.10;;
62711;SDS011;48772;55.586;37.730;2023-02-28T11:54:35;2.97;;;2.50;;
62711;SDS011;48772;55.586;37.730;2023-02-28T11:57:35;9.45;;;3.05;;
62711;SDS011;48772;55.586;37.730;2023-02-28T12:00:06;4.85;;;2.78;;
62711;SDS011;48772;55.586;37.730;2023-02-28T12:03:09;4.72;;;3.30;;
62711;SDS011;48772;55.586;37.730;2023-02-28T12:08:51;4.72;;;3.55;;
62711;SDS011;48772;55.586;37.730;2023-02-28T12:11:34;4.20;;;3.25;;
62711;SDS011;48772;55.586;37.730;2023-02-28T12:22:12;4.63;;;3.03;;
62711;SDS011;48772;55.586;37.730;2023-02-28T12:27:37;3.72;;;2.97;;
62711;SDS011;48772;55.586;37.730;2023-02-28T12:31:06;4.13;;;3.35;;
62711;SDS011;48772;55.586;37.730;2023-02-28T12:33:38;4.63;;;2.90;;
62711;SDS011;48772;55.586;37.730;2023-02-28T12:36:10;4.32;;;3.72;;
62711;SDS011;48772;55.586;37.730;2023-02-28T12:38:50;3.85;;;2.60;;
62711;SDS011;48772;55.586;37.730;2023-02-28T12:44:12;4.75;;;3.42;;
62711;SDS011;48772;55.586;37.730;2023-02-28T12:46:44;4.13;;;2.80;;
62711;SDS011;48772;55.586;37.730;2023-02-28T12:51:47;4.82;;;3.63;;
62711;SDS011;48772;55.586;37.730;2023-02-28T13:00:20;5.25;;;3.13;;
62711;SDS011;48772;55.586;37.730;2023-02-28T13:16:51;4.32;;;3.15;;
62711;SDS011;48772;55.586;37.730;2023-02-28T13:19:22;3.20;;;2.55;;
62711;SDS011;48772;55.586;37.730;2023-02-28T13:21:52;3.22;;;2.72;;
62711;SDS011;48772;55.586;37.730;2023-02-28T13:29:30;4.45;;;3.17;;
62711;SDS011;48772;55.586;37.730;2023-02-28T13:34:34;3.97;;;3.00;;
62711;SDS011;48772;55.586;37.730;2023-02-28T13:37:33;2.88;;;2.13;;
62711;SDS011;48772;55.586;37.730;2023-02-28T13:40:27;6.43;;;3.88;;
62711;SDS011;48772;55.586;37.730;2023-02-28T13:43:03;5.05;;;3.10;;
62711;SDS011;48772;55.586;37.730;2023-02-28T13:45:40;4.25;;;2.53;;
62711;SDS011;48772;55.586;37.730;2023-02-28T13:48:33;3.72;;;2.95;;
62711;SDS011;48772;55.586;37.730;2023-02-28T13:50:59;4.35;;;3.10;;
62711;SDS011;48772;55.586;37.730;2023-02-28T13:58:53;4.07;;;2.97;;
62711;SDS011;48772;55.586;37.730;2023-02-28T14:01:37;5.50;;;2.92;;
62711;SDS011;48772;55.586;37.730;2023-02-28T14:04:12;3.50;;;2.30;;
62711;SDS011;48772;55.586;37.730;2023-02-28T14:06:59;3.55;;;3.20;;
62711;SDS011;48772;55.586;37.730;2023-02-28T14:09:29;3.10;;;2.00;;
62711;SDS011;48772;55.586;37.730;2023-02-28T14:17:56;4.40;;;2.92;;
62711;SDS011;48772;55.586;37.730;2023-02-28T14:20:26;5.55;;;3.05;;
62711;SDS011;48772;55.586;37.730;2023-02-28T14:25:33;3.03;;;2.42;;
62711;SDS011;48772;55.586;37.730;2023-02-28T14:36:43;4.80;;;2.90;;
62711;SDS011;48772;55.586;37.730;2023-02-28T14:39:14;4.72;;;3.50;;
62711;SDS011;48772;55.586;37.730;2023-02-28T14:41:43;4.10;;;3.50;;
62711;SDS011;48772;55.586;37.730;2023-02-28T14:46:40;3.28;;;2.85;;
62711;SDS011;48772;55.586;37.730;2023-02-28T14:49:21;5.40;;;3.50;;
62711;SDS011;48772;55.586;37.730;2023-02-28T14:54:37;5.63;;;4.20;;
62711;SDS011;48772;55.586;37.730;2023-02-28T14:57:04;6.57;;;3.67;;
62711;SDS011;48772;55.586;37.730;2023-02-28T14:59:34;5.47;;;3.65;;
62711;SDS011;48772;55.586;37.730;2023-02-28T15:07:35;4.35;;;3.00;;
62711;SDS011;48772;55.586;37.730;2023-02-28T15:10:08;6.55;;;4.57;;
62711;SDS011;48772;55.586;37.730;2023-02-28T15:22:00;7.13;;;3.83;;
62711;SDS011;48772;55.586;37.730;2023-02-28T15:27:04;5.72;;;3.72;;
62711;SDS011;48772;55.586;37.730;2023-02-28T15:29:36;4.30;;;3.13;;
62711;SDS011;48772;55.586;37.730;2023-02-28T15:32:16;5.28;;;3.80;;
62711;SDS011;48772;55.586;37.730;2023-02-28T15:34:55;12.27;;;3.85;;
62711;SDS011;48772;55.586;37.730;2023-02-28T15:40:04;4.70;;;3.42;;
62711;SDS011;48772;55.586;37.730;2023-02-28T15:42:57;4.28;;;3.05;;
62711;SDS011;48772;55.586;37.730;2023-02-28T15:45:28;5.90;;;3.53;;
62711;SDS011;48772;55.586;37.730;2023-02-28T15:48:03;6.20;;;3.30;;
62711;SDS011;48772;55.586;37.730;2023-02-28T15:50:32;4.28;;;3.40;;
62711;SDS011;48772;55.586;37.730;2023-02-28T15:52:59;5.68;;;4.30;;
62711;SDS011;48772;55.586;37.730;2023-02-28T15:55:28;6.78;;;3.88;;
62711;SDS011;48772;55.586;37.730;2023-02-28T15:58:00;6.63;;;4.07;;
62711;SDS011;48772;55.586;37.730;2023-02-28T16:00:29;5.55;;;3.88;;
62711;SDS011;48772;55.586;37.730;2023-02-28T16:03:00;2.55;;;2.22;;
62711;SDS011;48772;55.586;37.730;2023-02-28T16:05:27;5.32;;;3.72;;
62711;SDS011;48772;55.586;37.730;2023-02-28T16:08:06;3.25;;;2.78;;
62711;SDS011;48772;55.586;37.730;2023-02-28T16:10:40;4.32;;;3.35;;
62711;SDS011;48772;55.586;37.730;2023-02-28T16:13:08;4.88;;;3.47;;
62711;SDS011;48772;55.586;37.730;2023-02-28T16:15:41;3.72;;;2.85;;
62711;SDS011;48772;55.586;37.730;2023-02-28T16:18:10;5.07;;;3.28;;
62711;SDS011;48772;55.586;37.730;2023-02-28T16:20:37;6.38;;;3.78;;
62711;SDS011;48772;55.586;37.730;2023-02-28T16:23:04;4.88;;;3.38;;
62711;SDS011;48772;55.586;37.730;2023-02-28T16:25:39;4.07;;;3.08;;
62711;SDS011;48772;55.586;37.730;2023-02-28T16:28:15;3.83;;;3.42;;
62711;SDS011;48772;55.586;37.730;2023-02-28T16:30:45;5.88;;;3.85;;
62711;SDS011;48772;55.586;37.730;2023-02-28T16:33:12;5.05;;;3.58;;
62711;SDS011;48772;55.586;37.730;2023-02-28T16:35:40;5.93;;;4.13;;
62711;SDS011;48772;55.586;37.730;2023-02-28T16:38:06;5.82;;;3.97;;
62711;SDS011;48772;55.586;37.730;2023-02-28T16:40:33;3.75;;;3.15;;
62711;SDS011;48772;55.586;37.730;2023-02-28T16:43:00;6.13;;;2.63;;
62711;SDS011;48772;55.586;37.730;2023-02-28T16:45:32;3.33;;;2.72;;
62711;SDS011;48772;55.586;37.730;2023-02-28T16:47:59;4.00;;;3.28;;
62711;SDS011;48772;55.586;37.730;2023-02-28T16:50:26;4.90;;;2.95;;
62711;SDS011;48772;55.586;37.730;2023-02-28T16:52:54;4.65;;;3.15;;
62711;SDS011;48772;55.586;37.730;2023-02-28T16:58:49;5.75;;;3.47;;
62711;SDS011;48772;55.586;37.730;2023-02-28T17:01:19;5.45;;;3.28;;
62711;SDS011;48772;55.586;37.730;2023-02-28T17:03:47;4.25;;;2.47;;
62711;SDS011;48772;55.586;37.730;2023-02-28T17:06:25;5.07;;;3.30;;
62711;SDS011;48772;55.586;37.730;2023-02-28T17:08:58;5.72;;;3.53;;
62711;SDS011;48772;55.586;37.730;2023-02-28T17:11:25;3.97;;;2.47;;
62711;SDS011;48772;55.586;37.730;2023-02-28T17:13:53;4.85;;;3.25;;
62711;SDS011;48772;55.586;37.730;2023-02-28T17:16:25;4.13;;;2.97;;
62711;SDS011;48772;55.586;37.730;2023-02-28T17:18:55;4.22;;;2.80;;
62711;SDS011;48772;55.586;37.730;2023-02-28T17:21:24;5.28;;;3.17;;
62711;SDS011;48772;55.586;37.730;2023-02-28T17:23:51;4.40;;;2.90;;
62711;SDS011;48772;55.586;37.730;2023-02-28T17:26:18;3.65;;;2.95;;
62711;SDS011;48772;55.586;37.730;2023-02-28T17:28:53;4.07;;;2.78;;
62711;SDS011;48772;55.586;37.730;2023-02-28T17:31:31;6.43;;;3.53;;
62711;SDS011;48772;55.586;37.730;2023-02-28T17:33:58;4.50;;;3.03;;
62711;SDS011;48772;55.586;37.730;2023-02-28T17:36:27;14.43;;;4.03;;
62711;SDS011;48772;55.586;37.730;2023-02-28T17:38:57;6.45;;;3.03;;
62711;SDS011;48772;55.586;37.730;2023-02-28T17:41:25;5.35;;;2.72;;
62711;SDS011;48772;55.586;37.730;2023-02-28T17:43:56;3.58;;;2.40;;
62711;SDS011;48772;55.586;37.730;2023-02-28T17:46:23;3.88;;;2.72;;
62711;SDS011;48772;55.586;37.730;2023-02-28T17:48:51;3.67;;;2.28;;
62711;SDS011;48772;55.586;37.730;2023-02-28T17:51:19;2.45;;;1.70;;
62711;SDS011;48772;55.586;37.730;2023-02-28T17:53:47;1.42;;;1.10;;
62711;SDS011;48772;55.586;37.730;2023-02-28T17:56:21;1.52;;;1.15;;
62711;SDS011;48772;55.586;37.730;2023-02-28T17:58:49;2.58;;;1.70;;
62711;SDS011;48772;55.586;37.730;2023-02-28T18:01:17;2.40;;;1.05;;
62711;SDS011;48772;55.586;37.730;2023-02-28T18:03:47;2.90;;;1.55;;